createdAt,value
2018-01-24T00:02:28.467Z,8.10
2018-01-24T00:05:05.503Z,8.10
2018-01-24T00:12:57.602Z,8.20
2018-01-24T00:21:22.340Z,8.00
2018-01-24T00:26:37.914Z,8.20
2018-01-24T00:29:13.719Z,8.30
2018-01-24T00:37:28.500Z,8.30
2018-01-24T00:42:45.922Z,8.50
2018-01-24T00:45:28.369Z,8.60
2018-01-24T00:48:10.034Z,8.70
2018-01-24T00:50:47.449Z,8.70
2018-01-24T00:53:24.882Z,8.70
2018-01-24T00:56:02.354Z,8.80
2018-01-24T00:58:34.276Z,8.80
2018-01-24T01:09:46.316Z,8.90
2018-01-24T01:12:18.978Z,8.90
2018-01-24T01:15:01.548Z,9.00
2018-01-24T01:17:33.466Z,8.90
2018-01-24T01:20:08.472Z,8.90
2018-01-24T01:22:51.207Z,9.10
2018-01-24T01:25:23.575Z,9.10
2018-01-24T01:27:59.844Z,9.10
2018-01-24T01:30:36.802Z,9.10
2018-01-24T01:33:08.745Z,9.00
2018-01-24T01:35:50.663Z,9.00
2018-01-24T01:41:24.187Z,8.80
2018-01-24T01:44:00.614Z,8.80
2018-01-24T01:46:38.210Z,8.70
2018-01-24T01:49:11.823Z,8.60
2018-01-24T01:51:43.684Z,8.60
2018-01-24T01:54:17.435Z,8.60
2018-01-24T01:56:51.614Z,8.70
2018-01-24T02:02:26.466Z,8.60
2018-01-24T02:05:00.512Z,8.80
2018-01-24T02:07:32.507Z,8.80
2018-01-24T02:10:04.215Z,8.70
2018-01-24T02:12:37.088Z,8.70
2018-01-24T02:15:20.781Z,8.80
2018-01-24T02:20:46.408Z,8.80
2018-01-24T02:23:18.643Z,8.70
2018-01-24T02:25:51.059Z,8.70
2018-01-24T02:28:34.210Z,8.80
2018-01-24T02:33:58.574Z,8.70
2018-01-24T02:36:35.362Z,8.60
2018-01-24T02:39:20.334Z,8.60
2018-01-24T02:47:50.754Z,8.50
2018-01-24T02:50:21.924Z,8.50
2018-01-24T02:55:40.734Z,8.50
2018-01-24T02:58:20.747Z,8.50
2018-01-24T03:00:52.670Z,8.50
2018-01-24T03:03:20.230Z,8.50
2018-01-24T03:05:57.521Z,8.50
2018-01-24T03:08:26.102Z,8.50
2018-01-24T03:10:57.190Z,8.40
2018-01-24T03:13:32.895Z,8.50
2018-01-24T03:18:41.436Z,8.40
2018-01-24T03:21:13.546Z,8.40
2018-01-24T03:23:43.894Z,8.40
2018-01-24T03:26:32.143Z,8.30
2018-01-24T03:32:38.540Z,8.40
2018-01-24T03:38:05.179Z,7.90
2018-01-24T03:43:21.561Z,7.60
2018-01-24T03:45:52.035Z,7.60
2018-01-24T03:48:21.476Z,7.60
2018-01-24T03:50:56.881Z,7.60
2018-01-24T03:53:30.410Z,7.80
2018-01-24T03:56:00.633Z,7.70
2018-01-24T03:58:38.053Z,7.80
2018-01-24T04:01:09.638Z,7.80
2018-01-24T04:03:44.514Z,7.70
2018-01-24T04:06:19.097Z,7.70
2018-01-24T04:08:48.700Z,7.80
2018-01-24T04:13:55.987Z,7.90
2018-01-24T04:16:33.107Z,7.90
2018-01-24T04:19:01.621Z,7.90
2018-01-24T04:21:32.655Z,7.90
2018-01-24T04:24:00.861Z,7.90
2018-01-24T04:26:35.752Z,8.00
2018-01-24T04:29:11.456Z,7.90
2018-01-24T04:34:46.206Z,7.70
2018-01-24T04:42:33.477Z,7.70
2018-01-24T04:48:02.705Z,7.60
2018-01-24T04:50:54.018Z,7.60
2018-01-24T04:53:25.098Z,7.60
2018-01-24T04:55:56.493Z,7.50
2018-01-24T04:58:28.622Z,7.50
2018-01-24T05:01:00.117Z,7.40
2018-01-24T05:03:48.034Z,7.40
2018-01-24T05:12:35.227Z,7.40
2018-01-24T05:15:08.400Z,7.40
2018-01-24T05:17:41.253Z,7.30
2018-01-24T05:23:24.295Z,7.30
2018-01-24T05:25:59.111Z,7.30
2018-01-24T05:28:46.522Z,7.20
2018-01-24T05:34:52.085Z,7.20
2018-01-24T05:37:25.364Z,7.20
2018-01-24T05:40:14.027Z,7.20
2018-01-24T05:43:03.790Z,7.30
2018-01-24T05:45:42.385Z,7.30
2018-01-24T05:48:13.830Z,7.20
2018-01-24T05:53:42.779Z,7.20
2018-01-24T05:56:16.680Z,7.30
2018-01-24T05:59:05.170Z,7.20
2018-01-24T06:01:34.134Z,7.20
2018-01-24T06:04:21.151Z,7.20
2018-01-24T06:06:53.168Z,7.20
2018-01-24T06:09:33.813Z,7.20
2018-01-24T06:12:13.319Z,7.20
2018-01-24T06:14:49.245Z,7.30
2018-01-24T06:17:28.439Z,7.30
2018-01-24T06:22:55.682Z,7.30
2018-01-24T06:25:44.539Z,7.30
2018-01-24T06:31:33.371Z,7.30
2018-01-24T06:34:03.099Z,7.20
2018-01-24T06:36:35.913Z,7.20
2018-01-24T06:39:12.117Z,7.30
2018-01-24T06:41:40.213Z,7.20
2018-01-24T06:44:24.981Z,7.40
2018-01-24T06:47:08.718Z,7.30
2018-01-24T06:52:20.632Z,7.30
2018-01-24T06:58:00.191Z,7.40
2018-01-24T07:00:31.750Z,7.40
2018-01-24T07:03:04.595Z,7.30
2018-01-24T07:05:38.548Z,7.30
2018-01-24T07:11:01.164Z,7.40
2018-01-24T07:13:43.076Z,7.40
2018-01-24T07:16:10.607Z,7.30
2018-01-24T07:18:38.992Z,7.40
2018-01-24T07:21:07.958Z,7.30
2018-01-24T07:23:36.493Z,7.30
2018-01-24T07:26:05.622Z,7.30
2018-01-24T07:28:34.061Z,7.20
2018-01-24T07:31:01.735Z,7.30
2018-01-24T07:33:30.091Z,7.30
2018-01-24T07:35:58.499Z,7.40
2018-01-24T07:38:27.739Z,7.40
2018-01-24T07:40:55.330Z,7.30
2018-01-24T07:43:23.713Z,7.40
2018-01-24T07:45:51.262Z,7.30
2018-01-24T07:48:18.869Z,7.30
2018-01-24T07:50:46.406Z,7.30
2018-01-24T07:53:17.922Z,7.30
2018-01-24T07:55:46.274Z,7.40
2018-01-24T07:58:14.654Z,7.30
2018-01-24T08:00:42.187Z,7.50
2018-01-24T08:03:11.198Z,7.50
2018-01-24T08:05:38.785Z,7.50
2018-01-24T08:08:06.430Z,7.60
2018-01-24T08:10:35.610Z,7.50
2018-01-24T08:13:04.529Z,7.50
2018-01-24T08:15:32.916Z,7.50
2018-01-24T08:18:00.579Z,7.50
2018-01-24T08:20:29.094Z,7.60
2018-01-24T08:22:56.695Z,7.70
2018-01-24T08:25:25.898Z,7.70
2018-01-24T08:27:54.438Z,7.70
2018-01-24T08:30:22.836Z,7.70
2018-01-24T08:32:51.387Z,7.80
2018-01-24T08:35:21.574Z,8.00
2018-01-24T08:37:49.220Z,8.00
2018-01-24T08:40:17.688Z,8.10
2018-01-24T08:42:46.114Z,8.30
2018-01-24T08:45:15.763Z,8.30
2018-01-24T08:47:52.099Z,8.30
2018-01-24T08:50:19.651Z,8.20
2018-01-24T08:52:47.311Z,8.30
2018-01-24T08:55:15.768Z,8.40
2018-01-24T08:57:43.404Z,8.50
2018-01-24T09:00:29.327Z,8.80
2018-01-24T09:03:14.567Z,8.70
2018-01-24T09:06:01.550Z,8.80
2018-01-24T09:08:46.856Z,8.90
2018-01-24T09:11:32.044Z,8.90
2018-01-24T09:14:18.303Z,8.90
2018-01-24T09:17:05.287Z,9.00
2018-01-24T09:19:51.073Z,9.00
2018-01-24T09:22:37.111Z,9.10
2018-01-24T09:25:06.258Z,9.10
2018-01-24T09:27:34.985Z,9.10
2018-01-24T09:30:03.736Z,9.20
2018-01-24T09:32:34.044Z,9.40
2018-01-24T09:35:02.432Z,9.50
2018-01-24T09:37:30.787Z,9.70
2018-01-24T09:40:00.214Z,9.90
2018-01-24T09:42:29.613Z,9.90
2018-01-24T09:44:57.973Z,10.00
2018-01-24T09:47:26.592Z,10.00
2018-01-24T09:49:55.007Z,10.10
2018-01-24T09:52:23.368Z,10.40
2018-01-24T09:54:51.490Z,10.40
2018-01-24T09:57:19.849Z,10.40
2018-01-24T09:59:47.418Z,10.40
2018-01-24T10:02:15.933Z,10.60
2018-01-24T10:04:44.987Z,10.60
2018-01-24T10:07:13.289Z,10.60
2018-01-24T10:09:40.855Z,10.70
2018-01-24T10:12:08.759Z,10.60
2018-01-24T10:14:37.459Z,10.70
2018-01-24T10:17:05.733Z,10.70
2018-01-24T10:19:33.291Z,10.80
2018-01-24T10:22:00.887Z,10.80
2018-01-24T10:24:30.852Z,11.00
2018-01-24T10:27:00.038Z,11.00
2018-01-24T10:29:27.587Z,10.90
2018-01-24T10:31:55.955Z,11.10
2018-01-24T10:34:24.310Z,11.10
2018-01-24T10:36:52.700Z,11.30
2018-01-24T10:39:20.308Z,11.30
2018-01-24T10:41:51.014Z,11.30
2018-01-24T10:44:20.188Z,11.30
2018-01-24T10:46:48.824Z,11.40
2018-01-24T10:49:17.392Z,11.40
2018-01-24T10:51:45.407Z,11.40
2018-01-24T10:54:14.999Z,11.50
2018-01-24T10:56:42.672Z,11.50
2018-01-24T10:59:10.239Z,11.50
2018-01-24T11:01:38.622Z,11.60
2018-01-24T11:04:06.264Z,11.70
2018-01-24T11:06:35.544Z,11.80
2018-01-24T11:09:04.125Z,11.80
2018-01-24T11:11:34.430Z,12.00
2018-01-24T11:14:02.064Z,12.00
2018-01-24T11:16:33.059Z,12.00
2018-01-24T11:19:01.433Z,12.40
2018-01-24T11:21:30.667Z,12.40
2018-01-24T11:23:58.239Z,12.40
2018-01-24T11:26:26.762Z,12.40
2018-01-24T11:28:54.342Z,12.50
2018-01-24T11:31:22.917Z,12.60
2018-01-24T11:33:51.320Z,12.60
2018-01-24T11:36:18.994Z,12.60
2018-01-24T11:38:48.442Z,12.60
2018-01-24T11:41:16.931Z,12.80
2018-01-24T11:43:45.180Z,12.80
2018-01-24T11:46:12.761Z,12.80
2018-01-24T11:48:41.366Z,12.90
2018-01-24T11:51:09.602Z,12.90
2018-01-24T11:53:38.874Z,13.00
2018-01-24T11:56:07.460Z,13.00
2018-01-24T11:58:35.870Z,13.00
2018-01-24T12:01:04.214Z,13.00
2018-01-24T12:03:34.805Z,13.20
2018-01-24T12:06:03.292Z,13.20
2018-01-24T12:08:31.603Z,13.20
2018-01-24T12:10:59.919Z,13.20
2018-01-24T12:13:28.862Z,13.20
2018-01-24T12:15:57.551Z,13.20
2018-01-24T12:18:26.001Z,13.30
2018-01-24T12:20:54.771Z,13.50
2018-01-24T12:23:23.023Z,13.40
2018-01-24T12:25:51.968Z,13.40
2018-01-24T12:28:19.612Z,13.40
2018-01-24T12:30:47.912Z,13.40
2018-01-24T12:33:17.643Z,13.40
2018-01-24T12:35:45.331Z,13.50
2018-01-24T12:38:12.966Z,13.50
2018-01-24T12:40:42.143Z,13.40
2018-01-24T12:43:11.896Z,13.40
2018-01-24T12:45:42.083Z,13.30
2018-01-24T12:48:09.771Z,13.30
2018-01-24T12:50:38.393Z,13.40
2018-01-24T12:53:06.780Z,13.40
2018-01-24T12:55:34.329Z,13.40
2018-01-24T12:58:01.902Z,13.50
2018-01-24T13:00:29.455Z,13.40
2018-01-24T13:02:57.629Z,13.50
2018-01-24T13:05:25.214Z,13.60
2018-01-24T13:07:52.935Z,13.50
2018-01-24T13:10:20.767Z,13.50
2018-01-24T13:12:48.980Z,13.50
2018-01-24T13:15:17.652Z,13.60
2018-01-24T13:17:45.418Z,13.50
2018-01-24T13:20:14.097Z,13.50
2018-01-24T13:22:43.153Z,13.50
2018-01-24T13:25:10.929Z,13.50
2018-01-24T13:27:39.549Z,13.50
2018-01-24T13:30:07.307Z,13.60
2018-01-24T13:32:35.106Z,13.60
2018-01-24T13:35:03.567Z,13.90
2018-01-24T13:37:32.077Z,13.90
2018-01-24T13:39:59.752Z,13.90
2018-01-24T13:42:27.564Z,14.00
2018-01-24T13:44:55.176Z,14.20
2018-01-24T13:47:22.907Z,14.20
2018-01-24T13:49:51.259Z,14.00
2018-01-24T13:52:18.938Z,13.80
2018-01-24T13:54:47.039Z,13.70
2018-01-24T13:57:14.909Z,13.50
2018-01-24T13:59:42.541Z,13.50
2018-01-24T14:02:10.156Z,13.30
2018-01-24T14:04:37.815Z,13.40
2018-01-24T14:07:05.564Z,13.20
2018-01-24T14:09:33.943Z,13.20
2018-01-24T14:12:01.737Z,13.20
2018-01-24T14:14:29.321Z,13.10
2018-01-24T14:16:57.069Z,12.90
2018-01-24T14:19:25.417Z,12.80
2018-01-24T14:21:53.056Z,12.70
2018-01-24T14:24:21.543Z,12.60
2018-01-24T14:26:50.003Z,12.50
2018-01-24T14:29:17.679Z,12.40
2018-01-24T14:31:45.281Z,12.30
2018-01-24T14:34:14.508Z,12.20
2018-01-24T14:36:42.852Z,12.20
2018-01-24T14:39:10.467Z,12.30
2018-01-24T14:41:38.191Z,12.20
2018-01-24T14:44:05.877Z,12.10
2018-01-24T14:46:33.526Z,11.90
2018-01-24T14:49:01.817Z,11.90
2018-01-24T14:51:29.448Z,11.80
2018-01-24T14:53:57.039Z,11.70
2018-01-24T14:56:25.423Z,11.70
2018-01-24T14:58:52.978Z,11.60
2018-01-24T15:01:20.581Z,11.60
2018-01-24T15:03:49.011Z,11.40
2018-01-24T15:06:16.845Z,11.40
2018-01-24T15:08:44.568Z,11.30
2018-01-24T15:11:12.226Z,11.20
2018-01-24T15:13:40.663Z,11.10
2018-01-24T15:16:08.436Z,11.00
2018-01-24T15:18:35.980Z,11.10
2018-01-24T15:21:03.903Z,11.10
2018-01-24T15:23:31.541Z,11.00
2018-01-24T15:25:59.626Z,11.10
2018-01-24T15:28:27.357Z,10.90
2018-01-24T15:30:55.903Z,10.60
2018-01-24T15:33:23.582Z,10.60
2018-01-24T15:35:51.246Z,10.60
2018-01-24T15:38:18.923Z,10.50
2018-01-24T15:40:46.619Z,10.30
2018-01-24T15:43:14.194Z,10.30
2018-01-24T15:45:41.925Z,10.20
2018-01-24T15:48:10.314Z,10.10
2018-01-24T15:50:38.696Z,10.10
2018-01-24T15:53:06.420Z,10.00
2018-01-24T15:55:35.195Z,9.90
2018-01-24T15:58:03.600Z,10.00
2018-01-24T16:00:32.170Z,9.90
2018-01-24T16:02:59.826Z,10.00
2018-01-24T16:05:28.240Z,9.70
2018-01-24T16:07:55.936Z,9.70
2018-01-24T16:10:23.951Z,9.70
2018-01-24T16:12:51.491Z,9.60
2018-01-24T16:15:19.240Z,9.50
2018-01-24T16:17:46.920Z,9.30
2018-01-24T16:20:14.543Z,9.30
2018-01-24T16:22:42.154Z,9.30
2018-01-24T16:25:09.759Z,9.20
2018-01-24T16:27:38.174Z,9.20
2018-01-24T16:30:05.782Z,9.20
2018-01-24T16:32:33.437Z,9.20
2018-01-24T16:35:01.894Z,9.20
2018-01-24T16:37:30.397Z,8.90
2018-01-24T16:39:58.017Z,8.90
2018-01-24T16:42:25.668Z,8.90
2018-01-24T16:44:53.537Z,8.90
2018-01-24T16:47:21.201Z,8.70
2018-01-24T16:49:50.081Z,8.70
2018-01-24T16:52:17.814Z,8.70
2018-01-24T16:54:45.965Z,8.60
2018-01-24T16:57:13.645Z,8.60
2018-01-24T16:59:41.398Z,8.60
2018-01-24T17:02:09.004Z,8.50
2018-01-24T17:04:38.119Z,8.40
2018-01-24T17:07:05.736Z,8.40
2018-01-24T17:09:33.371Z,8.50
2018-01-24T17:12:01.018Z,8.40
2018-01-24T17:14:31.051Z,8.50
2018-01-24T17:16:59.335Z,8.50
2018-01-24T17:19:27.703Z,8.30
2018-01-24T17:21:56.320Z,8.30
2018-01-24T17:24:25.713Z,8.40
2018-01-24T17:26:53.432Z,8.50
2018-01-24T17:29:22.008Z,8.40
2018-01-24T17:31:49.860Z,8.40
2018-01-24T17:34:17.481Z,8.40
2018-01-24T17:36:45.977Z,8.50
2018-01-24T17:39:14.712Z,8.50
2018-01-24T17:41:43.528Z,8.50
2018-01-24T17:44:11.957Z,8.50
2018-01-24T17:46:40.486Z,8.50
2018-01-24T17:49:08.643Z,8.50
2018-01-24T17:51:38.602Z,8.40
2018-01-24T17:56:49.419Z,8.40
2018-01-24T17:59:17.008Z,8.50
2018-01-24T18:01:44.688Z,8.50
2018-01-24T18:04:12.297Z,8.50
2018-01-24T18:06:42.230Z,8.50
2018-01-24T18:09:09.997Z,8.40
2018-01-24T18:11:37.869Z,8.50
2018-01-24T18:14:06.419Z,8.60
2018-01-24T18:16:34.120Z,8.60
2018-01-24T18:19:01.853Z,8.60
2018-01-24T18:21:32.136Z,8.60
2018-01-24T18:23:59.683Z,8.50
2018-01-24T18:26:27.272Z,8.50
2018-01-24T18:28:55.732Z,8.60
2018-01-24T18:31:24.137Z,8.70
2018-01-24T18:33:52.620Z,8.70
2018-01-24T18:36:21.258Z,8.70
2018-01-24T18:38:48.788Z,8.60
2018-01-24T18:41:16.485Z,8.80
2018-01-24T18:43:44.011Z,8.80
2018-01-24T18:46:11.605Z,8.70
2018-01-24T18:48:39.977Z,8.80
2018-01-24T18:51:07.553Z,8.80
2018-01-24T18:53:38.031Z,8.70
2018-01-24T18:56:08.819Z,8.80
2018-01-24T18:58:37.025Z,8.90
2018-01-24T19:01:05.456Z,8.80
2018-01-24T19:03:34.657Z,8.70
2018-01-24T19:06:02.844Z,8.70
2018-01-24T19:08:31.224Z,8.80
2018-01-24T19:10:58.913Z,8.80
2018-01-24T19:13:28.673Z,8.90
2018-01-24T19:15:57.058Z,8.90
2018-01-24T19:18:25.236Z,8.90
2018-01-24T19:20:53.757Z,8.80
2018-01-24T19:23:23.110Z,8.90
2018-01-24T19:25:50.772Z,8.90
2018-01-24T19:28:20.013Z,9.00
2018-01-24T19:30:47.589Z,8.90
2018-01-24T19:33:15.899Z,8.90
2018-01-24T19:35:43.490Z,8.90
2018-01-24T19:38:11.025Z,9.00
2018-01-24T19:40:38.636Z,8.90
2018-01-24T19:43:06.310Z,8.90
2018-01-24T19:45:34.056Z,8.90
2018-01-24T19:48:03.467Z,8.90
2018-01-24T19:50:38.774Z,8.80
2018-01-24T19:53:11.868Z,8.80
2018-01-24T19:55:40.819Z,8.90
2018-01-24T19:58:09.227Z,8.90
2018-01-24T20:00:37.708Z,8.90
2018-01-24T20:03:22.073Z,8.80
2018-01-24T20:05:53.225Z,8.80
2018-01-24T20:08:23.327Z,8.70
2018-01-24T20:10:52.522Z,8.80
2018-01-24T20:13:23.004Z,8.90
2018-01-24T20:15:53.084Z,8.80
2018-01-24T20:18:22.227Z,8.80
2018-01-24T20:20:49.816Z,8.80
2018-01-24T20:23:19.066Z,8.70
2018-01-24T20:25:49.812Z,8.70
2018-01-24T20:30:57.212Z,8.70
2018-01-24T20:33:24.946Z,8.60
2018-01-24T20:35:54.248Z,8.60
2018-01-24T20:38:22.730Z,8.60
2018-01-24T20:40:54.727Z,8.60
2018-01-24T20:43:28.622Z,8.60
2018-01-24T20:45:57.774Z,8.60
2018-01-24T20:48:28.718Z,8.70
2018-01-24T20:50:56.314Z,8.60
2018-01-24T20:53:24.826Z,8.70
2018-01-24T20:55:54.196Z,8.80
2018-01-24T20:58:23.552Z,8.80
2018-01-24T21:00:52.060Z,8.80
2018-01-24T21:03:28.212Z,8.60
2018-01-24T21:05:56.526Z,8.60
2018-01-24T21:08:25.049Z,8.70
2018-01-24T21:10:54.404Z,8.70
2018-01-24T21:13:24.228Z,8.70
2018-01-24T21:15:54.577Z,8.70
2018-01-24T21:18:23.639Z,8.70
2018-01-24T21:20:52.014Z,8.80
2018-01-24T21:23:20.448Z,8.70
2018-01-24T21:25:50.614Z,8.70
2018-01-24T21:28:31.308Z,8.80
2018-01-24T21:31:13.871Z,9.00
2018-01-24T21:33:50.509Z,9.00
2018-01-24T21:39:29.935Z,8.80
2018-01-24T21:42:00.119Z,8.80
2018-01-24T21:44:28.530Z,8.70
2018-01-24T21:46:56.897Z,8.70
2018-01-24T21:49:28.361Z,8.70
2018-01-24T21:51:57.769Z,8.60
2018-01-24T21:54:30.437Z,8.60
2018-01-24T21:56:58.147Z,8.80
2018-01-24T21:59:29.240Z,8.70
2018-01-24T22:02:14.051Z,8.70
2018-01-24T22:04:47.597Z,8.70
2018-01-24T22:07:19.652Z,8.70
2018-01-24T22:09:50.329Z,8.70
2018-01-24T22:12:21.172Z,8.60
2018-01-24T22:14:56.134Z,8.80
2018-01-24T22:17:31.647Z,8.70
2018-01-24T22:20:09.607Z,8.70
2018-01-24T22:22:42.659Z,8.70
2018-01-24T22:25:26.108Z,8.80
2018-01-24T22:27:53.991Z,8.80
2018-01-24T22:30:24.301Z,8.80
2018-01-24T22:32:58.203Z,8.70
2018-01-24T22:35:31.150Z,8.70
2018-01-24T22:38:02.810Z,8.80
2018-01-24T22:40:31.332Z,8.80
2018-01-24T22:43:02.239Z,8.70
2018-01-24T22:45:35.909Z,8.70
2018-01-24T22:48:07.700Z,8.70
2018-01-24T22:50:37.159Z,8.80
2018-01-24T22:53:11.136Z,8.90
2018-01-24T22:55:40.500Z,8.80
2018-01-24T22:58:09.023Z,8.90
2018-01-24T23:00:41.523Z,8.80
2018-01-24T23:03:09.853Z,8.90
2018-01-24T23:05:40.121Z,8.80
2018-01-24T23:08:11.007Z,8.80
2018-01-24T23:10:38.656Z,8.80
2018-01-24T23:13:08.484Z,8.60
2018-01-24T23:15:38.481Z,8.50
2018-01-24T23:18:06.261Z,8.50
2018-01-24T23:20:35.413Z,8.40
2018-01-24T23:23:03.489Z,8.40
2018-01-24T23:25:32.671Z,8.40
2018-01-24T23:28:03.470Z,8.40
2018-01-24T23:30:34.188Z,8.50
2018-01-24T23:33:01.990Z,8.60
2018-01-24T23:35:30.626Z,8.60
2018-01-24T23:38:01.259Z,8.60
2018-01-24T23:40:28.946Z,8.70
2018-01-24T23:42:56.551Z,8.80
2018-01-24T23:45:24.174Z,8.80
2018-01-24T23:47:51.812Z,8.80
2018-01-24T23:50:19.497Z,9.00
2018-01-24T23:53:02.161Z,9.50
2018-01-24T23:55:37.358Z,9.50
2018-01-24T23:58:07.643Z,9.80
